Terminal Aerodrome Forecast
Issued by NWS

Home | Current Version | Previous Version | Text Only | Print | Product List | Glossary On
Versions: 1 2 3 4 5 6 7 8 9 10 11 12
000
FTUS44 KSJT 311700
TAFBBD
TAF
KBBD 311727Z 3118/0118 33009KT P6SM BKN018
     FM312100 36011G18KT P6SM BKN050
     FM010000 02006KT P6SM BKN120=

USA.gov is the U.S. government's official web portal to all federal, state and local government web resources and services.